Terminal Aerodrome Forecast
Issued by NWS

Current Version | Previous Version | Text Only | Print | Product List | Glossary On
Versions: 1 2 3 4 5 6 7 8 9 10 11 12 13 14 15 16 17 18 19
000
FTUS43 KAPX 141100
TAFTVC
TAF
KTVC 141120Z 1412/1512 VRB03KT P6SM BKN100
     FM141500 26007KT P6SM BKN060
     FM150100 30005KT P6SM VCSH SCT025 OVC040
     FM150600 30006KT 5SM -SHSN SCT008 OVC015=

USA.gov is the U.S. government's official web portal to all federal, state and local government web resources and services.